sensor_id;sensor_type;location;lat;lon;timestamp;pressure;altitude;pressure_sealevel;temperature;humidity
54882;BME280;40775;51.448;4.742;2023-04-07T00:00:29;101495.25;;;9.00;100.00
54882;BME280;40775;51.448;4.742;2023-04-07T00:02:57;101490.69;;;8.94;100.00
54882;BME280;40775;51.448;4.742;2023-04-07T00:05:24;101493.41;;;8.97;100.00
54882;BME280;40775;51.448;4.742;2023-04-07T00:07:52;101493.53;;;9.01;100.00
54882;BME280;40775;51.448;4.742;2023-04-07T00:10:24;101492.59;;;8.98;100.00
54882;BME280;40775;51.448;4.742;2023-04-07T00:12:51;101487.25;;;8.95;100.00
54882;BME280;40775;51.448;4.742;2023-04-07T00:15:18;101484.72;;;8.98;100.00
54882;BME280;40775;51.448;4.742;2023-04-07T00:17:45;101490.91;;;9.01;100.00
54882;BME280;40775;51.448;4.742;2023-04-07T00:20:12;101495.31;;;9.02;100.00
54882;BME280;40775;51.448;4.742;2023-04-07T00:22:39;101493.53;;;9.01;100.00
54882;BME280;40775;51.448;4.742;2023-04-07T00:25:07;101498.78;;;9.01;100.00
54882;BME280;40775;51.448;4.742;2023-04-07T00:27:34;101494.41;;;9.01;100.00
54882;BME280;40775;51.448;4.742;2023-04-07T00:30:02;101492.69;;;9.02;100.00
54882;BME280;40775;51.448;4.742;2023-04-07T00:32:30;101497.59;;;8.92;100.00
54882;BME280;40775;51.448;4.742;2023-04-07T00:35:00;101496.88;;;8.96;100.00
54882;BME280;40775;51.448;4.742;2023-04-07T00:37:28;101494.03;;;8.90;100.00
54882;BME280;40775;51.448;4.742;2023-04-07T00:39:55;101496.72;;;8.92;100.00
54882;BME280;40775;51.448;4.742;2023-04-07T00:42:23;101496.75;;;8.93;100.00
54882;BME280;40775;51.448;4.742;2023-04-07T00:44:50;101496.88;;;8.96;100.00
54882;BME280;40775;51.448;4.742;2023-04-07T00:47:17;101500.34;;;8.95;100.00
54882;BME280;40775;51.448;4.742;2023-04-07T00:49:45;101496.75;;;8.93;100.00
54882;BME280;40775;51.448;4.742;2023-04-07T00:52:13;101504.50;;;8.90;100.00
54882;BME280;40775;51.448;4.742;2023-04-07T00:54:41;101505.28;;;8.88;100.00
54882;BME280;40775;51.448;4.742;2023-04-07T00:57:10;101508.69;;;8.85;100.00
54882;BME280;40775;51.448;4.742;2023-04-07T00:59:37;101504.28;;;8.84;100.00
54882;BME280;40775;51.448;4.742;2023-04-07T01:02:22;101505.97;;;8.82;100.00
54882;BME280;40775;51.448;4.742;2023-04-07T01:05:15;101512.88;;;8.80;100.00
54882;BME280;40775;51.448;4.742;2023-04-07T01:11:02;101507.63;;;8.80;100.00
54882;BME280;40775;51.448;4.742;2023-04-07T01:13:50;101514.47;;;8.77;100.00
54882;BME280;40775;51.448;4.742;2023-04-07T01:16:30;101508.19;;;8.73;100.00
54882;BME280;40775;51.448;4.742;2023-04-07T01:19:08;101502.78;;;8.68;100.00
54882;BME280;40775;51.448;4.742;2023-04-07T01:21:40;101506.31;;;8.69;100.00
54882;BME280;40775;51.448;4.742;2023-04-07T01:30:19;101501.06;;;8.69;100.00
54882;BME280;40775;51.448;4.742;2023-04-07T01:32:51;101496.91;;;8.74;100.00
54882;BME280;40775;51.448;4.742;2023-04-07T01:35:19;101514.38;;;8.75;100.00
54882;BME280;40775;51.448;4.742;2023-04-07T01:37:47;101503.91;;;8.75;100.00
54882;BME280;40775;51.448;4.742;2023-04-07T01:40:16;101508.19;;;8.73;100.00
54882;BME280;40775;51.448;4.742;2023-04-07T01:42:45;101511.78;;;8.75;100.00
54882;BME280;40775;51.448;4.742;2023-04-07T01:45:15;101511.78;;;8.75;100.00
54882;BME280;40775;51.448;4.742;2023-04-07T01:47:44;101514.28;;;8.72;100.00
54882;BME280;40775;51.448;4.742;2023-04-07T01:50:12;101515.22;;;8.74;100.00
54882;BME280;40775;51.448;4.742;2023-04-07T01:52:41;101520.47;;;8.74;100.00
54882;BME280;40775;51.448;4.742;2023-04-07T01:55:09;101514.22;;;8.71;100.00
54882;BME280;40775;51.448;4.742;2023-04-07T01:57:36;101517.00;;;8.75;100.00
54882;BME280;40775;51.448;4.742;2023-04-07T02:00:05;101514.28;;;8.72;100.00
54882;BME280;40775;51.448;4.742;2023-04-07T02:02:40;101514.22;;;8.71;100.00
54882;BME280;40775;51.448;4.742;2023-04-07T02:05:13;101516.88;;;8.72;100.00
54882;BME280;40775;51.448;4.742;2023-04-07T02:07:57;101517.72;;;8.71;100.00
54882;BME280;40775;51.448;4.742;2023-04-07T02:10:26;101519.50;;;8.72;100.00
54882;BME280;40775;51.448;4.742;2023-04-07T02:12:54;101509.09;;;8.74;100.00
54882;BME280;40775;51.448;4.742;2023-04-07T02:15:23;101508.88;;;8.67;100.00
54882;BME280;40775;51.448;4.742;2023-04-07T02:17:53;101512.25;;;8.65;100.00
54882;BME280;40775;51.448;4.742;2023-04-07T02:20:21;101515.53;;;8.59;100.00
54882;BME280;40775;51.448;4.742;2023-04-07T02:22:49;101513.94;;;8.63;100.00
54882;BME280;40775;51.448;4.742;2023-04-07T02:25:28;101519.00;;;8.58;100.00
54882;BME280;40775;51.448;4.742;2023-04-07T02:27:57;101520.66;;;8.56;100.00
54882;BME280;40775;51.448;4.742;2023-04-07T02:30:25;101519.88;;;8.59;100.00
54882;BME280;40775;51.448;4.742;2023-04-07T02:32:53;101519.00;;;8.58;100.00
54882;BME280;40775;51.448;4.742;2023-04-07T02:35:20;101517.25;;;8.59;100.00
54882;BME280;40775;51.448;4.742;2023-04-07T02:37:48;101521.44;;;8.54;100.00
54882;BME280;40775;51.448;4.742;2023-04-07T02:40:15;101526.59;;;8.52;100.00
54882;BME280;40775;51.448;4.742;2023-04-07T02:42:43;101524.75;;;8.50;100.00
54882;BME280;40775;51.448;4.742;2023-04-07T02:45:10;101527.22;;;8.47;100.00
54882;BME280;40775;51.448;4.742;2023-04-07T02:47:38;101529.63;;;8.41;100.00
54882;BME280;40775;51.448;4.742;2023-04-07T02:50:06;101529.63;;;8.41;100.00
54882;BME280;40775;51.448;4.742;2023-04-07T02:52:33;101526.03;;;8.39;100.00
54882;BME280;40775;51.448;4.742;2023-04-07T02:55:01;101527.59;;;8.33;100.00
54882;BME280;40775;51.448;4.742;2023-04-07T02:57:28;101532.94;;;8.36;100.00
54882;BME280;40775;51.448;4.742;2023-04-07T02:59:55;101536.88;;;8.27;100.00
54882;BME280;40775;51.448;4.742;2023-04-07T03:02:24;101539.75;;;8.33;100.00
54882;BME280;40775;51.448;4.742;2023-04-07T03:04:51;101540.50;;;8.30;100.00
54882;BME280;40775;51.448;4.742;2023-04-07T03:07:19;101546.59;;;8.29;100.00
54882;BME280;40775;51.448;4.742;2023-04-07T03:09:46;101539.44;;;8.25;100.00
54882;BME280;40775;51.448;4.742;2023-04-07T03:12:13;101541.22;;;8.26;100.00
54882;BME280;40775;51.448;4.742;2023-04-07T03:14:40;101542.81;;;8.23;100.00
54882;BME280;40775;51.448;4.742;2023-04-07T03:17:07;101553.97;;;8.19;100.00
54882;BME280;40775;51.448;4.742;2023-04-07T03:19:34;101546.81;;;8.15;100.00
54882;BME280;40775;51.448;4.742;2023-04-07T03:22:01;101553.97;;;8.19;100.00
54882;BME280;40775;51.448;4.742;2023-04-07T03:24:28;101542.31;;;8.11;100.00
54882;BME280;40775;51.448;4.742;2023-04-07T03:26:56;101539.44;;;8.04;100.00
54882;BME280;40775;51.448;4.742;2023-04-07T03:29:23;101542.25;;;8.09;100.00
54882;BME280;40775;51.448;4.742;2023-04-07T03:31:50;101540.28;;;8.03;100.00
54882;BME280;40775;51.448;4.742;2023-04-07T03:34:17;101534.22;;;8.04;100.00
54882;BME280;40775;51.448;4.742;2023-04-07T03:36:44;101536.78;;;8.03;100.00
54882;BME280;40775;51.448;4.742;2023-04-07T03:39:11;101535.88;;;8.02;100.00
54882;BME280;40775;51.448;4.742;2023-04-07T03:41:39;101534.09;;;8.01;100.00
54882;BME280;40775;51.448;4.742;2023-04-07T03:44:06;101523.69;;;8.03;100.00
54882;BME280;40775;51.448;4.742;2023-04-07T03:46:33;101529.34;;;7.93;100.00
54882;BME280;40775;51.448;4.742;2023-04-07T03:49:00;101530.25;;;7.93;100.00
54882;BME280;40775;51.448;4.742;2023-04-07T03:51:27;101536.22;;;7.91;100.00
54882;BME280;40775;51.448;4.742;2023-04-07T03:53:54;101532.59;;;7.87;100.00
54882;BME280;40775;51.448;4.742;2023-04-07T03:56:21;101541.22;;;7.85;100.00
54882;BME280;40775;51.448;4.742;2023-04-07T03:58:48;101540.31;;;7.84;100.00
54882;BME280;40775;51.448;4.742;2023-04-07T04:01:15;101545.41;;;7.81;100.00
54882;BME280;40775;51.448;4.742;2023-04-07T04:03:42;101541.16;;;7.83;100.00
54882;BME280;40775;51.448;4.742;2023-04-07T04:06:10;101532.53;;;7.86;100.00
54882;BME280;40775;51.448;4.742;2023-04-07T04:08:37;101537.91;;;7.89;100.00
54882;BME280;40775;51.448;4.742;2023-04-07T04:11:04;101536.69;;;7.81;100.00
54882;BME280;40775;51.448;4.742;2023-04-07T04:13:31;101541.09;;;7.82;100.00
54882;BME280;40775;51.448;4.742;2023-04-07T04:15:58;101534.91;;;7.80;100.00
54882;BME280;40775;51.448;4.742;2023-04-07T04:18:25;101542.03;;;7.84;100.00
54882;BME280;40775;51.448;4.742;2023-04-07T04:20:52;101531.59;;;7.84;100.00
54882;BME280;40775;51.448;4.742;2023-04-07T04:23:19;101532.34;;;7.81;100.00
54882;BME280;40775;51.448;4.742;2023-04-07T04:25:47;101542.75;;;7.80;100.00
54882;BME280;40775;51.448;4.742;2023-04-07T04:28:14;101537.72;;;7.84;100.00
54882;BME280;40775;51.448;4.742;2023-04-07T04:30:43;101543.63;;;7.80;100.00
54882;BME280;40775;51.448;4.742;2023-04-07T04:33:11;101547.34;;;7.85;100.00
54882;BME280;40775;51.448;4.742;2023-04-07T04:35:38;101549.75;;;7.81;100.00
54882;BME280;40775;51.448;4.742;2023-04-07T04:38:05;101557.72;;;7.84;100.00
54882;BME280;40775;51.448;4.742;2023-04-07T04:40:33;101556.66;;;7.79;100.00
54882;BME280;40775;51.448;4.742;2023-04-07T04:43:00;101564.34;;;7.75;100.00
54882;BME280;40775;51.448;4.742;2023-04-07T04:45:27;101560.22;;;7.81;100.00
54882;BME280;40775;51.448;4.742;2023-04-07T04:47:54;101558.22;;;7.75;100.00
54882;BME280;40775;51.448;4.742;2023-04-07T04:50:21;101561.75;;;7.75;100.00
54882;BME280;40775;51.448;4.742;2023-04-07T04:52:48;101557.97;;;7.69;100.00
54882;BME280;40775;51.448;4.742;2023-04-07T04:55:25;101563.22;;;7.69;100.00
54882;BME280;40775;51.448;4.742;2023-04-07T04:57:55;101563.94;;;7.66;100.00
54882;BME280;40775;51.448;4.742;2023-04-07T05:00:22;101560.66;;;7.70;100.00
54882;BME280;40775;51.448;4.742;2023-04-07T05:02:49;101572.75;;;7.68;100.00
54882;BME280;40775;51.448;4.742;2023-04-07T05:05:16;101570.81;;;7.64;100.00
54882;BME280;40775;51.448;4.742;2023-04-07T05:07:44;101569.84;;;7.62;100.00
54882;BME280;40775;51.448;4.742;2023-04-07T05:10:12;101570.88;;;7.66;100.00
54882;BME280;40775;51.448;4.742;2023-04-07T05:12:39;101574.47;;;7.68;100.00
54882;BME280;40775;51.448;4.742;2023-04-07T05:15:07;101578.06;;;7.70;100.00
54882;BME280;40775;51.448;4.742;2023-04-07T05:17:34;101579.72;;;7.68;100.00
54882;BME280;40775;51.448;4.742;2023-04-07T05:20:02;101582.66;;;7.75;100.00
54882;BME280;40775;51.448;4.742;2023-04-07T05:22:30;101576.41;;;7.72;100.00
54882;BME280;40775;51.448;4.742;2023-04-07T05:24:57;101575.78;;;7.78;100.00
54882;BME280;40775;51.448;4.742;2023-04-07T05:27:24;101583.81;;;7.82;100.00
54882;BME280;40775;51.448;4.742;2023-04-07T05:29:51;101578.63;;;7.84;100.00
54882;BME280;40775;51.448;4.742;2023-04-07T05:32:18;101585.47;;;7.80;100.00
54882;BME280;40775;51.448;4.742;2023-04-07T05:34:45;101598.59;;;7.82;100.00
54882;BME280;40775;51.448;4.742;2023-04-07T05:37:15;101597.81;;;7.84;100.00
54882;BME280;40775;51.448;4.742;2023-04-07T05:39:42;101598.72;;;7.85;100.00
54882;BME280;40775;51.448;4.742;2023-04-07T05:42:09;101603.94;;;7.85;100.00
54882;BME280;40775;51.448;4.742;2023-04-07T05:44:39;101607.53;;;7.87;100.00
54882;BME280;40775;51.448;4.742;2023-04-07T05:47:06;101611.69;;;9.78;100.00
54882;BME280;40775;51.448;4.742;2023-04-07T05:49:35;101606.50;;;11.11;100.00
54882;BME280;40775;51.448;4.742;2023-04-07T05:52:02;101594.97;;;11.98;100.00
54882;BME280;40775;51.448;4.742;2023-04-07T05:54:31;101580.69;;;12.57;100.00
54882;BME280;40775;51.448;4.742;2023-04-07T05:56:58;101567.50;;;12.93;100.00
54882;BME280;40775;51.448;4.742;2023-04-07T05:59:25;101564.66;;;13.23;100.00
54882;BME280;40775;51.448;4.742;2023-04-07T06:01:53;101558.09;;;13.47;100.00
54882;BME280;40775;51.448;4.742;2023-04-07T06:04:20;101555.81;;;13.65;100.00
54882;BME280;40775;51.448;4.742;2023-04-07T06:06:47;101548.94;;;13.73;100.00
54882;BME280;40775;51.448;4.742;2023-04-07T06:09:14;101549.16;;;13.85;100.00
54882;BME280;40775;51.448;4.742;2023-04-07T06:11:41;101552.53;;;13.77;100.00
54882;BME280;40775;51.448;4.742;2023-04-07T06:14:09;101556.00;;;13.74;100.00
54882;BME280;40775;51.448;4.742;2023-04-07T06:16:36;101562.16;;;13.73;100.00
54882;BME280;40775;51.448;4.742;2023-04-07T06:19:03;101556.47;;;13.99;100.00
54882;BME280;40775;51.448;4.742;2023-04-07T06:21:30;101554.84;;;14.07;100.00
54882;BME280;40775;51.448;4.742;2023-04-07T06:23:58;101552.88;;;13.97;100.00
54882;BME280;40775;51.448;4.742;2023-04-07T06:26:25;101551.31;;;14.06;100.00
54882;BME280;40775;51.448;4.742;2023-04-07T06:28:54;101561.06;;;14.12;100.00
54882;BME280;40775;51.448;4.742;2023-04-07T06:31:21;101563.81;;;14.18;100.00
54882;BME280;40775;51.448;4.742;2023-04-07T06:33:52;101565.72;;;14.25;100.00
54882;BME280;40775;51.448;4.742;2023-04-07T06:36:19;101571.88;;;14.26;100.00
54882;BME280;40775;51.448;4.742;2023-04-07T06:38:47;101571.88;;;14.26;100.00
54882;BME280;40775;51.448;4.742;2023-04-07T06:41:14;101575.47;;;14.29;100.00
54882;BME280;40775;51.448;4.742;2023-04-07T06:43:46;101582.53;;;14.30;100.00
54882;BME280;40775;51.448;4.742;2023-04-07T06:46:13;101583.50;;;14.35;100.00
54882;BME280;40775;51.448;4.742;2023-04-07T06:48:40;101588.78;;;14.35;100.00
54882;BME280;40775;51.448;4.742;2023-04-07T06:51:08;101586.19;;;14.38;100.00
54882;BME280;40775;51.448;4.742;2023-04-07T06:53:35;101587.94;;;14.39;100.00
54882;BME280;40775;51.448;4.742;2023-04-07T06:56:03;101596.84;;;14.43;100.00
54882;BME280;40775;51.448;4.742;2023-04-07T06:58:31;101596.75;;;14.40;100.00
54882;BME280;40775;51.448;4.742;2023-04-07T07:00:59;101595.91;;;14.41;100.00
54882;BME280;40775;51.448;4.742;2023-04-07T07:03:28;101603.06;;;14.46;100.00
54882;BME280;40775;51.448;4.742;2023-04-07T07:05:56;101601.38;;;14.51;100.00
54882;BME280;40775;51.448;4.742;2023-04-07T07:08:26;101600.56;;;14.54;100.00
54882;BME280;40775;51.448;4.742;2023-04-07T07:10:54;101601.47;;;14.55;100.00
54882;BME280;40775;51.448;4.742;2023-04-07T07:13:24;101605.88;;;14.56;100.00
54882;BME280;40775;51.448;4.742;2023-04-07T07:15:52;101612.06;;;14.58;100.00
54882;BME280;40775;51.448;4.742;2023-04-07T07:18:19;101617.41;;;14.61;100.00
54882;BME280;40775;51.448;4.742;2023-04-07T07:20:47;101614.78;;;14.62;100.00
54882;BME280;40775;51.448;4.742;2023-04-07T07:23:15;101616.59;;;14.65;100.00
54882;BME280;40775;51.448;4.742;2023-04-07T07:25:42;101624.50;;;14.63;100.00
54882;BME280;40775;51.448;4.742;2023-04-07T07:28:09;101623.63;;;14.64;100.00
54882;BME280;40775;51.448;4.742;2023-04-07T07:30:38;101620.81;;;14.53;100.00
54882;BME280;40775;51.448;4.742;2023-04-07T07:33:07;101633.34;;;14.65;100.00
54882;BME280;40775;51.448;4.742;2023-04-07T07:35:34;101628.06;;;14.67;100.00
54882;BME280;40775;51.448;4.742;2023-04-07T07:38:03;101630.72;;;14.67;100.00
54882;BME280;40775;51.448;4.742;2023-04-07T07:40:31;101632.44;;;14.65;100.00
54882;BME280;40775;51.448;4.742;2023-04-07T07:42:59;101639.41;;;14.60;100.00
54882;BME280;40775;51.448;4.742;2023-04-07T07:45:26;101637.56;;;14.54;100.00
54882;BME280;40775;51.448;4.742;2023-04-07T07:47:53;101645.66;;;14.65;100.00
54882;BME280;40775;51.448;4.742;2023-04-07T07:50:21;101642.91;;;14.59;100.00
54882;BME280;40775;51.448;4.742;2023-04-07T07:52:48;101650.06;;;14.64;100.00
54882;BME280;40775;51.448;4.742;2023-04-07T07:55:15;101650.09;;;14.67;100.00
54882;BME280;40775;51.448;4.742;2023-04-07T07:57:42;101650.03;;;14.16;100.00
54882;BME280;40775;51.448;4.742;2023-04-07T08:00:10;101646.28;;;14.03;100.00
54882;BME280;40775;51.448;4.742;2023-04-07T08:02:37;101652.91;;;13.81;100.00
54882;BME280;40775;51.448;4.742;2023-04-07T08:05:06;101651.97;;;13.78;100.00
54882;BME280;40775;51.448;4.742;2023-04-07T08:07:33;101655.63;;;13.86;100.00
54882;BME280;40775;51.448;4.742;2023-04-07T08:10:00;101658.88;;;13.71;100.00
54882;BME280;40775;51.448;4.742;2023-04-07T08:12:28;101660.53;;;13.68;100.00
54882;BME280;40775;51.448;4.742;2023-04-07T08:14:55;101665.44;;;13.93;100.00
54882;BME280;40775;51.448;4.742;2023-04-07T08:17:22;101675.56;;;14.15;100.00
54882;BME280;40775;51.448;4.742;2023-04-07T08:19:49;101668.81;;;14.31;100.00
54882;BME280;40775;51.448;4.742;2023-04-07T08:22:16;101676.78;;;14.33;100.00
54882;BME280;40775;51.448;4.742;2023-04-07T08:24:45;101673.31;;;14.37;100.00
54882;BME280;40775;51.448;4.742;2023-04-07T08:27:15;101678.09;;;14.55;100.00
54882;BME280;40775;51.448;4.742;2023-04-07T08:29:42;101681.28;;;14.38;100.00
54882;BME280;40775;51.448;4.742;2023-04-07T08:32:09;101677.91;;;11.25;100.00
54882;BME280;40775;51.448;4.742;2023-04-07T08:34:36;101694.00;;;10.30;100.00
54882;BME280;40775;51.448;4.742;2023-04-07T08:37:04;101701.16;;;10.11;100.00
54882;BME280;40775;51.448;4.742;2023-04-07T08:39:33;101713.63;;;10.17;100.00
54882;BME280;40775;51.448;4.742;2023-04-07T08:42:00;101721.47;;;10.15;100.00
54882;BME280;40775;51.448;4.742;2023-04-07T08:44:29;101724.31;;;10.21;100.00
54882;BME280;40775;51.448;4.742;2023-04-07T08:46:57;101727.16;;;10.28;100.00
54882;BME280;40775;51.448;4.742;2023-04-07T08:49:27;101736.94;;;10.32;100.00
54882;BME280;40775;51.448;4.742;2023-04-07T08:51:56;101734.41;;;10.35;100.00
54882;BME280;40775;51.448;4.742;2023-04-07T08:54:25;101727.53;;;10.38;100.00
54882;BME280;40775;51.448;4.742;2023-04-07T08:56:53;101736.78;;;10.52;100.00
54882;BME280;40775;51.448;4.742;2023-04-07T08:59:21;101735.66;;;10.44;100.00
54882;BME280;40775;51.448;4.742;2023-04-07T09:01:53;101743.13;;;10.34;100.00
54882;BME280;40775;51.448;4.742;2023-04-07T09:04:21;101734.06;;;10.49;100.00
54882;BME280;40775;51.448;4.742;2023-04-07T09:06:50;101745.78;;;10.35;100.00
54882;BME280;40775;51.448;4.742;2023-04-07T09:09:17;101744.13;;;10.37;100.00
54882;BME280;40775;51.448;4.742;2023-04-07T09:11:47;101740.06;;;10.45;100.00
54882;BME280;40775;51.448;4.742;2023-04-07T09:14:14;101753.50;;;10.31;100.00
54882;BME280;40775;51.448;4.742;2023-04-07T09:16:41;101753.72;;;10.37;100.00
54882;BME280;40775;51.448;4.742;2023-04-07T09:19:09;101750.50;;;10.44;100.00
54882;BME280;40775;51.448;4.742;2023-04-07T09:21:50;101752.38;;;10.48;100.00
54882;BME280;40775;51.448;4.742;2023-04-07T09:24:28;101749.09;;;10.53;100.00
54882;BME280;40775;51.448;4.742;2023-04-07T09:27:15;101752.13;;;10.66;100.00
54882;BME280;40775;51.448;4.742;2023-04-07T09:29:45;101752.50;;;10.51;100.00
54882;BME280;40775;51.448;4.742;2023-04-07T09:32:34;101750.13;;;10.59;100.00
54882;BME280;40775;51.448;4.742;2023-04-07T09:35:04;101756.91;;;10.77;100.00
54882;BME280;40775;51.448;4.742;2023-04-07T09:37:32;101753.19;;;10.96;100.00
54882;BME280;40775;51.448;4.742;2023-04-07T09:39:59;101751.16;;;10.89;100.00
54882;BME280;40775;51.448;4.742;2023-04-07T09:42:27;101749.28;;;10.85;100.00
54882;BME280;40775;51.448;4.742;2023-04-07T09:44:59;101748.50;;;10.88;100.00
54882;BME280;40775;51.448;4.742;2023-04-07T09:47:28;101755.09;;;10.75;100.00
54882;BME280;40775;51.448;4.742;2023-04-07T09:49:57;101758.84;;;10.83;100.00
54882;BME280;40775;51.448;4.742;2023-04-07T09:52:48;101755.69;;;10.68;100.00
54882;BME280;40775;51.448;4.742;2023-04-07T09:55:15;101751.13;;;10.88;100.00
54882;BME280;40775;51.448;4.742;2023-04-07T09:57:43;101755.59;;;10.65;100.00
54882;BME280;40775;51.448;4.742;2023-04-07T10:00:11;101750.19;;;10.60;100.00
54882;BME280;40775;51.448;4.742;2023-04-07T10:02:38;101763.88;;;11.02;100.00
54882;BME280;40775;51.448;4.742;2023-04-07T10:05:07;101754.97;;;10.97;100.00
54882;BME280;40775;51.448;4.742;2023-04-07T10:07:35;101762.06;;;11.00;100.00
54882;BME280;40775;51.448;4.742;2023-04-07T10:10:03;101756.38;;;10.88;100.00
54882;BME280;40775;51.448;4.742;2023-04-07T10:12:34;101755.97;;;11.01;100.00
54882;BME280;40775;51.448;4.742;2023-04-07T10:15:04;101760.94;;;10.93;100.00
54882;BME280;40775;51.448;4.742;2023-04-07T10:17:33;101762.63;;;10.91;100.00
54882;BME280;40775;51.448;4.742;2023-04-07T10:20:04;101764.44;;;10.94;100.00
54882;BME280;40775;51.448;4.742;2023-04-07T10:22:34;101767.81;;;10.90;100.00
54882;BME280;40775;51.448;4.742;2023-04-07T10:25:13;101766.72;;;10.83;100.00
54882;BME280;40775;51.448;4.742;2023-04-07T10:27:51;101775.66;;;10.88;100.00
54882;BME280;40775;51.448;4.742;2023-04-07T10:30:29;101769.84;;;10.97;100.00
54882;BME280;40775;51.448;4.742;2023-04-07T10:32:56;101776.97;;;11.01;100.00
54882;BME280;40775;51.448;4.742;2023-04-07T10:35:23;101772.75;;;11.06;100.00
54882;BME280;40775;51.448;4.742;2023-04-07T10:40:35;101775.50;;;11.09;100.00
54882;BME280;40775;51.448;4.742;2023-04-07T10:43:04;101767.88;;;11.18;100.00
54882;BME280;40775;51.448;4.742;2023-04-07T10:48:15;101780.75;;;10.83;100.00
54882;BME280;40775;51.448;4.742;2023-04-07T10:50:45;101775.50;;;11.09;100.00
54882;BME280;40775;51.448;4.742;2023-04-07T10:53:14;101779.31;;;10.68;100.00
54882;BME280;40775;51.448;4.742;2023-04-07T10:55:43;101776.44;;;10.60;100.00
54882;BME280;40775;51.448;4.742;2023-04-07T10:58:29;101779.91;;;10.84;100.00
54882;BME280;40775;51.448;4.742;2023-04-07T11:03:32;101781.06;;;10.93;100.00
54882;BME280;40775;51.448;4.742;2023-04-07T11:08:37;101785.50;;;11.21;100.00
54882;BME280;40775;51.448;4.742;2023-04-07T11:11:09;101783.66;;;11.45;100.00
54882;BME280;40775;51.448;4.742;2023-04-07T11:13:49;101788.81;;;11.42;100.00
54882;BME280;40775;51.448;4.742;2023-04-07T11:16:19;101787.09;;;11.42;100.00
54882;BME280;40775;51.448;4.742;2023-04-07T11:19:00;101777.72;;;11.51;100.00
54882;BME280;40775;51.448;4.742;2023-04-07T11:21:27;101786.06;;;11.66;100.00
54882;BME280;40775;51.448;4.742;2023-04-07T11:23:54;101775.78;;;11.18;100.00
54882;BME280;40775;51.448;4.742;2023-04-07T11:26:21;101777.88;;;11.55;100.00
54882;BME280;40775;51.448;4.742;2023-04-07T11:28:52;101788.72;;;11.66;100.00
54882;BME280;40775;51.448;4.742;2023-04-07T11:31:29;101781.44;;;11.57;100.00
54882;BME280;40775;51.448;4.742;2023-04-07T11:34:03;101777.44;;;11.70;100.00
54882;BME280;40775;51.448;4.742;2023-04-07T11:36:38;101782.22;;;11.82;100.00
54882;BME280;40775;51.448;4.742;2023-04-07T11:39:08;101789.19;;;11.80;100.00
54882;BME280;40775;51.448;4.742;2023-04-07T11:41:48;101784.19;;;11.62;100.00
54882;BME280;40775;51.448;4.742;2023-04-07T11:44:15;101779.66;;;11.56;100.00
54882;BME280;40775;51.448;4.742;2023-04-07T11:49:24;101786.56;;;11.53;100.00
54882;BME280;40775;51.448;4.742;2023-04-07T11:52:02;101791.06;;;11.57;100.00
54882;BME280;40775;51.448;4.742;2023-04-07T11:54:43;101785.66;;;11.79;100.00
54882;BME280;40775;51.448;4.742;2023-04-07T11:57:13;101792.31;;;11.69;100.00
54882;BME280;40775;51.448;4.742;2023-04-07T11:59:40;101795.34;;;11.80;100.00
54882;BME280;40775;51.448;4.742;2023-04-07T12:02:07;101799.66;;;12.06;100.00
54882;BME280;40775;51.448;4.742;2023-04-07T12:04:36;101796.44;;;11.88;100.00
54882;BME280;40775;51.448;4.742;2023-04-07T12:07:08;101792.66;;;11.79;100.00
54882;BME280;40775;51.448;4.742;2023-04-07T12:09:36;101795.09;;;12.02;100.00
54882;BME280;40775;51.448;4.742;2023-04-07T12:12:06;101792.94;;;12.18;100.00
54882;BME280;40775;51.448;4.742;2023-04-07T12:14:34;101793.00;;;11.62;100.00
54882;BME280;40775;51.448;4.742;2023-04-07T12:17:02;101803.16;;;12.07;100.00
54882;BME280;40775;51.448;4.742;2023-04-07T12:19:31;101800.69;;;11.83;100.00
54882;BME280;40775;51.448;4.742;2023-04-07T12:22:02;101812.38;;;12.23;100.00
54882;BME280;40775;51.448;4.742;2023-04-07T12:24:29;101803.03;;;12.04;100.00
54882;BME280;40775;51.448;4.742;2023-04-07T12:26:58;101810.78;;;12.28;100.00
54882;BME280;40775;51.448;4.742;2023-04-07T12:29:25;101803.81;;;12.00;100.00
54882;BME280;40775;51.448;4.742;2023-04-07T12:31:52;101814.38;;;12.01;100.00
54882;BME280;40775;51.448;4.742;2023-04-07T12:34:19;101815.13;;;11.97;100.00
54882;BME280;40775;51.448;4.742;2023-04-07T12:36:47;101817.13;;;11.77;100.00
54882;BME280;40775;51.448;4.742;2023-04-07T12:39:15;101819.16;;;11.85;100.00
54882;BME280;40775;51.448;4.742;2023-04-07T12:41:42;101824.25;;;12.09;100.00
54882;BME280;40775;51.448;4.742;2023-04-07T12:44:11;101817.09;;;12.04;100.00
54882;BME280;40775;51.448;4.742;2023-04-07T12:46:39;101828.69;;;11.81;100.00
54882;BME280;40775;51.448;4.742;2023-04-07T12:49:06;101830.78;;;11.93;100.00
54882;BME280;40775;51.448;4.742;2023-04-07T12:51:33;101824.34;;;12.12;100.00
54882;BME280;40775;51.448;4.742;2023-04-07T12:54:03;101828.00;;;12.17;100.00
54882;BME280;40775;51.448;4.742;2023-04-07T12:56:30;101830.69;;;12.18;100.00
54882;BME280;40775;51.448;4.742;2023-04-07T12:58:57;101831.00;;;12.29;100.00
54882;BME280;40775;51.448;4.742;2023-04-07T13:01:24;101827.94;;;11.85;100.00
54882;BME280;40775;51.448;4.742;2023-04-07T13:03:51;101835.16;;;12.21;100.00
54882;BME280;40775;51.448;4.742;2023-04-07T13:06:19;101836.00;;;12.20;100.00
54882;BME280;40775;51.448;4.742;2023-04-07T13:08:46;101836.50;;;12.06;100.00
54882;BME280;40775;51.448;4.742;2023-04-07T13:11:13;101833.06;;;12.09;100.00
54882;BME280;40775;51.448;4.742;2023-04-07T13:13:40;101840.63;;;12.28;100.00
54882;BME280;40775;51.448;4.742;2023-04-07T13:16:07;101839.53;;;12.20;100.00